Time;durP1;ratioP1;P1;durP2;ratioP2;P2;SDS_P1;SDS_P2;PMS_P1;PMS_P2;Temp;Humidity;BMP_temperature;BMP_pressure;BME280_temperature;BME280_humidity;BME280_pressure;Samples;Min_cycle;Max_cycle;Signal;HPM_P1;HPM_P2
2022/06/18 00:01:33;;;;;;;7.85;5.00;;;21.90;99.90;;;;;;5104671;28;20035;-62
2022/06/18 00:04:28;;;;;;;10.77;4.82;;;21.90;99.90;;;;;;5106289;28;20035;-62
2022/06/18 00:07:00;;;;;;;6.65;4.22;;;21.90;99.90;;;;;;5088834;28;20070;-61
2022/06/18 00:09:42;;;;;;;8.50;4.88;;;21.90;99.90;;;;;;5099206;28;20032;-63
2022/06/18 00:15:17;;;;;;;8.43;5.30;;;21.90;99.90;;;;;;5106480;28;20031;-61
2022/06/18 00:17:44;;;;;;;10.13;4.85;;;21.90;99.90;;;;;;5106680;28;20041;-61
2022/06/18 00:20:12;;;;;;;8.85;4.82;;;21.80;99.90;;;;;;5104957;28;20031;-62
2022/06/18 00:22:46;;;;;;;8.25;4.82;;;21.80;99.90;;;;;;5103910;28;20070;-61
2022/06/18 00:25:26;;;;;;;9.02;4.97;;;21.80;99.90;;;;;;5101678;28;20078;-61
2022/06/18 00:27:51;;;;;;;7.80;4.30;;;21.80;99.90;;;;;;5104623;28;20035;-61
2022/06/18 00:30:20;;;;;;;8.38;4.53;;;21.80;99.90;;;;;;5106358;28;20057;-61
2022/06/18 00:32:46;;;;;;;6.30;4.88;;;21.80;99.90;;;;;;5101678;28;20064;-61
2022/06/18 00:35:14;;;;;;;10.30;4.93;;;21.80;99.90;;;;;;5108597;28;20042;-61
2022/06/18 00:37:41;;;;;;;9.73;5.45;;;21.80;99.90;;;;;;5102564;28;20047;-61
2022/06/18 00:40:27;;;;;;;8.73;4.78;;;21.80;99.90;;;;;;5100097;28;20040;-60
2022/06/18 00:42:56;;;;;;;6.82;5.07;;;21.80;99.90;;;;;;5100816;28;20040;-61
2022/06/18 00:45:26;;;;;;;7.38;5.50;;;21.70;99.90;;;;;;5105264;28;20108;-62
2022/06/18 00:48:02;;;;;;;6.53;5.20;;;21.70;99.90;;;;;;5105453;28;20364;-62
2022/06/18 00:50:43;;;;;;;7.40;5.20;;;21.80;99.90;;;;;;5101689;28;20457;-61
2022/06/18 00:53:15;;;;;;;10.40;5.20;;;21.70;99.90;;;;;;5098469;28;20054;-61
2022/06/18 00:56:08;;;;;;;6.55;5.28;;;21.70;99.90;;;;;;5104767;28;20044;-61
2022/06/18 00:58:42;;;;;;;13.32;5.60;;;21.70;99.90;;;;;;5087700;28;20464;-61
2022/06/18 01:01:11;;;;;;;;;;;21.60;99.90;;;;;;5102127;28;20229;-61
2022/06/18 01:03:38;;;;;;;10.85;5.70;;;21.60;99.90;;;;;;5104677;28;20010;-62
2022/06/18 01:06:14;;;;;;;7.50;5.90;;;21.60;99.90;;;;;;5108398;28;20031;-61
2022/06/18 01:08:41;;;;;;;8.90;5.78;;;21.60;99.90;;;;;;5105720;28;20036;-61
2022/06/18 01:11:17;;;;;;;9.18;5.70;;;21.60;99.90;;;;;;5085380;28;20056;-61
2022/06/18 01:13:43;;;;;;;9.23;6.05;;;21.50;99.90;;;;;;5104148;28;20038;-62
2022/06/18 01:16:10;;;;;;;7.65;6.20;;;21.50;99.90;;;;;;5106207;28;20036;-61
2022/06/18 01:18:38;;;;;;;9.45;6.53;;;21.50;99.90;;;;;;5104121;28;20075;-61
2022/06/18 01:21:27;;;;;;;7.47;6.15;;;21.50;99.90;;;;;;5103719;28;20106;-61
2022/06/18 01:24:22;;;;;;;10.23;6.50;;;21.50;99.90;;;;;;5102564;28;20035;-62
2022/06/18 01:26:51;;;;;;;10.88;6.50;;;21.40;99.90;;;;;;5100339;28;20032;-61
2022/06/18 01:29:18;;;;;;;9.82;6.82;;;21.40;99.90;;;;;;5105317;28;20028;-61
2022/06/18 01:31:46;;;;;;;11.25;6.63;;;21.30;99.90;;;;;;5106572;28;20027;-60
2022/06/18 01:34:14;;;;;;;9.60;7.22;;;21.40;99.90;;;;;;5092551;28;20037;-62
2022/06/18 01:36:41;;;;;;;9.00;6.63;;;21.30;99.90;;;;;;5105976;28;20047;-61
2022/06/18 01:39:13;;;;;;;10.82;6.78;;;21.30;99.90;;;;;;5101945;28;20043;-61
2022/06/18 01:41:49;;;;;;;8.85;7.50;;;21.30;99.90;;;;;;5103548;28;20036;-60
2022/06/18 01:44:17;;;;;;;8.93;7.05;;;21.30;99.90;;;;;;5100557;28;20097;-61
2022/06/18 01:46:47;;;;;;;8.48;7.00;;;21.30;99.90;;;;;;5104481;28;20040;-62
2022/06/18 01:49:17;;;;;;;9.80;7.28;;;21.20;99.90;;;;;;5106625;28;20036;-61
2022/06/18 01:51:47;;;;;;;8.43;7.22;;;21.20;99.90;;;;;;5102849;28;20127;-61
2022/06/18 01:54:41;;;;;;;13.55;8.57;;;21.10;99.90;;;;;;5107279;28;20142;-62
2022/06/18 01:57:15;;;;;;;8.45;7.53;;;21.10;99.90;;;;;;5096483;28;20430;-62
2022/06/18 01:59:46;;;;;;;10.70;7.47;;;21.10;99.90;;;;;;5104834;28;20101;-61
2022/06/18 02:02:12;;;;;;;10.63;7.15;;;21.10;99.90;;;;;;5105793;28;20456;-61
2022/06/18 02:04:38;;;;;;;11.80;8.25;;;21.00;99.90;;;;;;5092620;28;20039;-61
2022/06/18 02:07:06;;;;;;;14.98;8.50;;;21.00;99.90;;;;;;5105622;28;20115;-62
2022/06/18 02:09:34;;;;;;;12.80;8.35;;;21.00;99.90;;;;;;5103083;28;20032;-61
2022/06/18 02:12:03;;;;;;;9.60;7.43;;;21.00;99.90;;;;;;5102220;28;20071;-61
2022/06/18 02:14:30;;;;;;;12.65;8.07;;;20.90;99.90;;;;;;5097992;28;20040;-60
2022/06/18 02:16:57;;;;;;;10.40;7.18;;;20.90;99.90;;;;;;5105989;28;20035;-61
2022/06/18 02:19:23;;;;;;;10.23;8.00;;;20.90;99.90;;;;;;5102884;28;20059;-62
2022/06/18 02:21:54;;;;;;;10.70;8.15;;;20.90;99.90;;;;;;5100984;28;20056;-61
2022/06/18 02:24:20;;;;;;;10.93;8.10;;;20.90;99.90;;;;;;5108135;28;20516;-61
2022/06/18 02:26:48;;;;;;;12.48;8.23;;;20.80;99.90;;;;;;5102242;28;20071;-60
2022/06/18 02:29:23;;;;;;;9.93;7.65;;;20.80;99.90;;;;;;5108865;28;20417;-61
2022/06/18 02:31:51;;;;;;;9.93;7.95;;;20.80;99.90;;;;;;5101518;28;20032;-61
2022/06/18 02:34:21;;;;;;;9.90;7.80;;;20.70;99.90;;;;;;5108880;28;20107;-62
2022/06/18 02:36:48;;;;;;;10.10;7.60;;;20.80;99.90;;;;;;5103662;28;20342;-61
2022/06/18 02:39:50;;;;;;;12.00;8.82;;;20.70;99.90;;;;;;5107559;28;20024;-62
2022/06/18 02:42:16;;;;;;;11.95;7.85;;;20.70;99.90;;;;;;5102868;28;20032;-61
2022/06/18 02:44:44;;;;;;;11.50;8.18;;;20.70;99.90;;;;;;5108255;28;20034;-61
2022/06/18 02:47:12;;;;;;;12.32;8.57;;;20.60;99.90;;;;;;5095985;28;20069;-61
2022/06/18 02:49:56;;;;;;;11.65;8.05;;;20.60;99.90;;;;;;5108761;28;20546;-61
2022/06/18 02:52:27;;;;;;;13.85;9.27;;;20.60;99.90;;;;;;5104644;28;20118;-62
2022/06/18 02:55:28;;;;;;;14.75;8.38;;;20.60;99.90;;;;;;5107221;28;20090;-62
2022/06/18 02:58:04;;;;;;;12.55;8.68;;;20.50;99.90;;;;;;5085286;28;20042;-61
2022/06/18 03:00:32;;;;;;;13.02;8.82;;;20.50;99.90;;;;;;5109584;28;20035;-62
2022/06/18 03:02:57;;;;;;;10.95;8.30;;;20.50;99.90;;;;;;5101706;28;20035;-62
2022/06/18 03:05:27;;;;;;;11.00;8.07;;;20.40;99.90;;;;;;5107635;28;20077;-61
2022/06/18 03:07:53;;;;;;;10.70;7.88;;;20.40;99.90;;;;;;5093492;28;20357;-61
2022/06/18 03:13:04;;;;;;;12.68;8.07;;;20.40;99.90;;;;;;5106588;28;20047;-62
2022/06/18 03:15:30;;;;;;;11.35;7.80;;;20.40;99.90;;;;;;5108524;28;20028;-62
2022/06/18 03:18:00;;;;;;;12.02;8.30;;;20.40;99.90;;;;;;5105683;28;20039;-62
2022/06/18 03:20:37;;;;;;;12.25;8.15;;;20.40;99.90;;;;;;5102249;28;20047;-61
2022/06/18 03:23:05;;;;;;;11.70;8.15;;;20.40;99.90;;;;;;5107527;28;20036;-61
2022/06/18 03:25:30;;;;;;;15.27;8.95;;;20.40;99.90;;;;;;5106881;28;20074;-62
2022/06/18 03:27:56;;;;;;;12.10;8.52;;;20.40;99.90;;;;;;5105399;28;20067;-61
2022/06/18 03:30:22;;;;;;;13.73;8.57;;;20.40;99.90;;;;;;5106936;28;20093;-62
2022/06/18 03:32:47;;;;;;;12.65;8.63;;;20.40;99.90;;;;;;5104634;28;20042;-61
2022/06/18 03:35:13;;;;;;;13.60;9.48;;;20.40;99.90;;;;;;5091474;28;20501;-62
2022/06/18 03:37:39;;;;;;;15.20;10.23;;;20.40;99.90;;;;;;5105348;28;20483;-61
2022/06/18 03:40:05;;;;;;;12.93;9.82;;;20.40;99.90;;;;;;5107718;28;20090;-62
2022/06/18 03:42:30;;;;;;;16.02;10.32;;;20.30;99.90;;;;;;5088665;28;20028;-61
2022/06/18 03:44:56;;;;;;;12.90;9.75;;;20.30;99.90;;;;;;5105329;28;20093;-62
2022/06/18 03:47:23;;;;;;;13.80;10.32;;;20.20;99.90;;;;;;5091686;28;20044;-61
2022/06/18 03:49:48;;;;;;;14.27;10.65;;;20.20;99.90;;;;;;5094559;28;20039;-61
2022/06/18 03:52:14;;;;;;;13.93;10.10;;;20.20;99.90;;;;;;5104926;28;20337;-62
2022/06/18 03:54:40;;;;;;;15.75;10.40;;;20.20;99.90;;;;;;5083772;28;20076;-62
2022/06/18 03:57:06;;;;;;;16.45;10.35;;;20.20;99.90;;;;;;5085160;28;20086;-63
2022/06/18 03:59:31;;;;;;;13.00;10.00;;;20.30;99.90;;;;;;5087768;28;20112;-61
2022/06/18 04:01:57;;;;;;;12.38;9.13;;;20.20;99.90;;;;;;5084800;28;20037;-61
2022/06/18 04:04:23;;;;;;;17.15;10.45;;;20.20;99.90;;;;;;5074225;28;20043;-61
2022/06/18 04:06:49;;;;;;;18.60;10.02;;;20.30;99.90;;;;;;5087339;28;20028;-61
2022/06/18 04:09:14;;;;;;;20.45;10.52;;;20.30;99.90;;;;;;5084896;28;20097;-61
2022/06/18 04:11:40;;;;;;;15.88;9.45;;;20.30;99.90;;;;;;5083135;28;20073;-61
2022/06/18 04:14:05;;;;;;;16.25;10.05;;;20.30;99.90;;;;;;5081545;28;20066;-61
2022/06/18 04:16:32;;;;;;;17.70;10.52;;;20.30;99.90;;;;;;5087721;28;20480;-61
2022/06/18 04:18:58;;;;;;;19.58;10.68;;;20.20;99.90;;;;;;5082702;28;20029;-61
2022/06/18 04:21:23;;;;;;;17.98;10.05;;;20.20;99.90;;;;;;5083484;28;20493;-61
2022/06/18 04:23:49;;;;;;;16.05;10.05;;;20.20;99.90;;;;;;5084803;28;20093;-61
2022/06/18 04:26:15;;;;;;;20.00;10.70;;;20.20;99.90;;;;;;5084951;28;20449;-61
2022/06/18 04:28:41;;;;;;;13.98;10.02;;;20.20;99.90;;;;;;5087927;28;20349;-61
2022/06/18 04:31:07;;;;;;;20.10;10.70;;;20.10;99.90;;;;;;5083874;28;20109;-61
2022/06/18 04:33:34;;;;;;;15.77;10.20;;;20.20;99.90;;;;;;5083976;28;20039;-61
2022/06/18 04:36:00;;;;;;;18.38;10.52;;;20.20;99.90;;;;;;5084468;28;20510;-63
2022/06/18 04:38:26;;;;;;;16.88;10.52;;;20.20;99.90;;;;;;5084805;28;20020;-61
2022/06/18 04:40:52;;;;;;;19.30;10.98;;;20.20;99.90;;;;;;5085719;28;20407;-62
2022/06/18 04:43:18;;;;;;;18.40;11.13;;;20.30;99.90;;;;;;5083049;28;20036;-62
2022/06/18 04:45:44;;;;;;;20.60;10.48;;;20.30;99.90;;;;;;5085035;28;20453;-61
2022/06/18 04:48:09;;;;;;;22.85;11.85;;;20.40;99.90;;;;;;5086073;28;20030;-62
2022/06/18 04:50:39;;;;;;;20.13;11.38;;;20.40;99.90;;;;;;5086313;28;20613;-62
2022/06/18 04:53:06;;;;;;;19.63;12.13;;;20.50;99.90;;;;;;5091291;28;20058;-62
2022/06/18 04:55:33;;;;;;;22.13;11.30;;;20.50;99.90;;;;;;5105608;28;20114;-63
2022/06/18 04:57:59;;;;;;;17.25;11.25;;;20.70;99.90;;;;;;5105634;28;20047;-62
2022/06/18 05:00:25;;;;;;;19.00;11.18;;;21.10;99.90;;;;;;5105656;28;20028;-62
2022/06/18 05:02:50;;;;;;;17.30;10.98;;;21.50;99.90;;;;;;5100209;28;20066;-62
2022/06/18 05:05:23;;;;;;;23.05;11.63;;;21.80;99.90;;;;;;5105686;28;20067;-62
2022/06/18 05:07:49;;;;;;;25.38;11.18;;;22.00;99.90;;;;;;5087401;28;20048;-61
2022/06/18 05:10:15;;;;;;;16.45;11.18;;;22.20;99.90;;;;;;5104080;28;20042;-62
2022/06/18 05:12:41;;;;;;;18.00;11.00;;;22.40;99.90;;;;;;5074572;28;20043;-61
2022/06/18 05:15:08;;;;;;;19.30;10.02;;;22.50;99.90;;;;;;5104491;28;20047;-62
2022/06/18 05:17:36;;;;;;;19.42;10.98;;;22.80;99.90;;;;;;5103361;28;20070;-61
2022/06/18 05:20:04;;;;;;;19.17;10.23;;;23.10;99.90;;;;;;5090841;28;20054;-62
2022/06/18 05:22:30;;;;;;;18.05;9.98;;;23.50;99.90;;;;;;5099471;28;20035;-62
2022/06/18 05:24:56;;;;;;;21.17;10.38;;;23.70;99.90;;;;;;5105565;28;20039;-62
2022/06/18 05:27:28;;;;;;;16.20;10.60;;;23.70;99.90;;;;;;5105875;28;20085;-61
2022/06/18 05:29:55;;;;;;;20.02;10.15;;;23.80;99.90;;;;;;5106295;28;20027;-63
2022/06/18 05:32:21;;;;;;;17.05;9.48;;;23.90;99.90;;;;;;5101397;28;20044;-62
2022/06/18 05:34:46;;;;;;;19.45;10.75;;;24.00;99.90;;;;;;5106208;28;20101;-63
2022/06/18 05:37:15;;;;;;;21.10;10.43;;;24.10;99.90;;;;;;5103632;28;20410;-62
2022/06/18 05:39:44;;;;;;;18.00;10.63;;;24.20;99.90;;;;;;5105434;28;20057;-65
2022/06/18 05:42:10;;;;;;;19.63;10.07;;;24.30;99.90;;;;;;5098824;28;20062;-62
2022/06/18 05:44:36;;;;;;;19.55;10.40;;;24.40;99.90;;;;;;5105198;28;20432;-63
2022/06/18 05:47:31;;;;;;;16.15;10.13;;;24.40;99.90;;;;;;5105222;28;20047;-63
2022/06/18 05:49:57;;;;;;;16.67;10.05;;;24.30;99.90;;;;;;5088849;28;20050;-62
2022/06/18 05:52:24;;;;;;;19.33;10.73;;;24.50;99.90;;;;;;5102585;28;20067;-63
2022/06/18 05:54:52;;;;;;;20.10;10.70;;;24.60;99.90;;;;;;5089603;28;20048;-62
2022/06/18 05:57:19;;;;;;;21.40;11.55;;;24.80;99.90;;;;;;5091934;28;20039;-62
2022/06/18 05:59:45;;;;;;;19.38;11.70;;;24.60;99.90;;;;;;5108731;28;20111;-62
2022/06/18 06:02:13;;;;;;;19.98;11.70;;;24.40;99.90;;;;;;5092084;28;20051;-63
2022/06/18 06:04:40;;;;;;;21.45;11.80;;;24.30;99.90;;;;;;5108398;28;20402;-64
2022/06/18 06:07:06;;;;;;;22.48;10.88;;;24.30;99.90;;;;;;5109160;28;20039;-62
2022/06/18 06:12:16;;;;;;;21.58;11.40;;;24.60;99.90;;;;;;5105441;28;20051;-62
2022/06/18 06:14:42;;;;;;;18.52;11.77;;;24.90;99.90;;;;;;5107072;28;20036;-62
2022/06/18 06:17:14;;;;;;;19.23;11.60;;;24.90;99.90;;;;;;5093832;28;20043;-63
2022/06/18 06:19:40;;;;;;;21.02;11.35;;;25.00;99.90;;;;;;5110753;28;20031;-64
2022/06/18 06:22:06;;;;;;;20.00;11.77;;;24.90;99.90;;;;;;5107735;28;20036;-63
2022/06/18 06:24:32;;;;;;;17.38;11.15;;;25.00;99.90;;;;;;5113131;28;20043;-63
2022/06/18 06:26:57;;;;;;;19.45;11.82;;;25.30;99.90;;;;;;5095615;28;20035;-63
2022/06/18 06:29:23;;;;;;;20.02;12.10;;;25.50;99.90;;;;;;5111995;28;20417;-62
2022/06/18 06:31:49;;;;;;;18.35;11.90;;;25.70;99.90;;;;;;5111057;28;20043;-62
2022/06/18 06:34:14;;;;;;;20.33;11.27;;;25.70;99.90;;;;;;5111944;28;20035;-62
2022/06/18 06:36:40;;;;;;;21.17;12.20;;;26.00;99.90;;;;;;5111239;28;20120;-63
2022/06/18 06:39:06;;;;;;;20.08;11.95;;;26.30;99.90;;;;;;5112344;28;20061;-62
2022/06/18 06:41:32;;;;;;;19.95;12.10;;;26.20;99.90;;;;;;5109265;28;20027;-62
2022/06/18 06:43:58;;;;;;;21.48;11.18;;;26.20;99.90;;;;;;5110550;28;20040;-62
2022/06/18 06:46:23;;;;;;;18.75;11.48;;;26.00;99.90;;;;;;5111997;28;20042;-63
2022/06/18 06:48:49;;;;;;;19.15;11.85;;;26.40;99.90;;;;;;5112578;28;20067;-62
2022/06/18 06:51:28;;;;;;;22.15;12.10;;;26.60;99.90;;;;;;5109560;28;20032;-60
2022/06/18 06:53:54;;;;;;;26.42;12.00;;;26.40;99.90;;;;;;5090936;28;20040;-59
2022/06/18 06:59:08;;;;;;;20.00;11.18;;;26.50;99.90;;;;;;5101814;28;20354;-61
2022/06/18 07:01:37;;;;;;;14.65;9.52;;;26.70;99.90;;;;;;5108063;28;20091;-59
2022/06/18 07:04:05;;;;;;;19.55;10.32;;;26.80;99.90;;;;;;5110587;28;20042;-59
2022/06/18 07:06:31;;;;;;;15.20;9.27;;;26.80;99.90;;;;;;5108316;28;20031;-60
2022/06/18 07:08:57;;;;;;;13.95;9.20;;;26.60;99.90;;;;;;5106523;28;20051;-60
2022/06/18 07:11:23;;;;;;;14.02;8.98;;;26.60;99.90;;;;;;5091682;28;20035;-60
2022/06/18 07:13:48;;;;;;;13.65;8.13;;;26.50;99.90;;;;;;5103963;28;20141;-60
2022/06/18 07:16:15;;;;;;;16.83;7.63;;;26.80;99.90;;;;;;5094971;28;20157;-61
2022/06/18 07:18:41;;;;;;;12.52;7.30;;;26.90;99.90;;;;;;5106102;28;20047;-61
2022/06/18 07:21:12;;;;;;;12.40;7.22;;;26.50;99.90;;;;;;5104099;28;20085;-61
2022/06/18 07:23:38;;;;;;;12.82;7.10;;;26.40;99.90;;;;;;5105545;28;20111;-62
2022/06/18 07:26:04;;;;;;;19.05;6.72;;;26.30;99.90;;;;;;5107452;28;20122;-61
2022/06/18 07:28:30;;;;;;;14.02;6.97;;;26.50;99.90;;;;;;5107914;28;20077;-61
2022/06/18 07:30:56;;;;;;;11.23;6.95;;;26.30;99.90;;;;;;5109717;28;20039;-61
2022/06/18 07:33:24;;;;;;;16.45;6.20;;;26.30;99.90;;;;;;5106404;28;20024;-61
2022/06/18 07:35:51;;;;;;;12.07;6.65;;;26.60;99.90;;;;;;5105216;28;20043;-62
2022/06/18 07:38:16;;;;;;;12.32;6.43;;;26.80;99.90;;;;;;5106678;28;20119;-60
2022/06/18 07:40:54;;;;;;;13.07;6.60;;;26.80;99.90;;;;;;5106083;28;20106;-61
2022/06/18 07:43:34;;;;;;;14.63;5.88;;;26.80;99.90;;;;;;5102416;28;20036;-62
2022/06/18 07:46:02;;;;;;;10.68;6.13;;;26.60;99.90;;;;;;5091947;28;20031;-61
2022/06/18 07:48:28;;;;;;;10.88;5.68;;;26.40;99.90;;;;;;5107592;28;20047;-61
2022/06/18 07:50:54;;;;;;;12.70;5.78;;;26.20;99.90;;;;;;5111853;28;20149;-61
2022/06/18 07:53:23;;;;;;;16.00;6.00;;;26.20;99.90;;;;;;5104412;28;20117;-61
2022/06/18 07:55:49;;;;;;;14.65;6.40;;;26.20;99.90;;;;;;5107486;28;20120;-61
2022/06/18 07:58:15;;;;;;;11.88;5.22;;;26.10;99.90;;;;;;5110292;28;20067;-61
2022/06/18 08:00:42;;;;;;;13.65;5.65;;;26.20;99.90;;;;;;5111346;28;20054;-61
2022/06/18 08:03:09;;;;;;;10.02;4.90;;;26.40;99.90;;;;;;5107781;28;20371;-61
2022/06/18 08:05:37;;;;;;;13.15;4.85;;;26.40;99.90;;;;;;5112868;28;20040;-61
2022/06/18 08:08:03;;;;;;;8.43;4.25;;;26.30;99.90;;;;;;5112678;28;20039;-60
2022/06/18 08:10:30;;;;;;;9.80;4.65;;;26.50;99.90;;;;;;5089976;28;20051;-61
2022/06/18 08:12:56;;;;;;;9.80;4.47;;;26.70;99.90;;;;;;5108036;28;20028;-61
2022/06/18 08:15:22;;;;;;;10.90;4.47;;;26.40;99.90;;;;;;5109832;28;20421;-61
2022/06/18 08:17:47;;;;;;;9.13;4.07;;;26.40;99.90;;;;;;5111197;28;20456;-61
2022/06/18 08:20:13;;;;;;;8.40;4.20;;;26.30;99.90;;;;;;5092801;28;20035;-61
2022/06/18 08:22:42;;;;;;;11.20;4.80;;;26.50;99.90;;;;;;5110031;28;20069;-61
2022/06/18 08:25:12;;;;;;;10.73;4.30;;;26.70;99.90;;;;;;5108244;28;20096;-61
2022/06/18 08:27:39;;;;;;;11.77;5.00;;;26.90;99.90;;;;;;5110529;28;20483;-61
2022/06/18 08:30:05;;;;;;;9.70;4.63;;;26.60;99.90;;;;;;5094092;28;20723;-61
2022/06/18 08:32:31;;;;;;;8.63;4.78;;;26.50;99.90;;;;;;5108009;28;20047;-62
2022/06/18 08:34:57;;;;;;;14.20;4.95;;;26.30;99.90;;;;;;5109369;28;20046;-61
2022/06/18 08:37:23;;;;;;;11.40;5.47;;;26.20;99.90;;;;;;5109986;28;20046;-62
2022/06/18 08:39:49;;;;;;;9.43;4.57;;;26.20;99.90;;;;;;5110774;28;20039;-63
2022/06/18 08:42:33;;;;;;;8.80;4.50;;;26.20;99.90;;;;;;5107157;28;20031;-62
2022/06/18 08:45:11;;;;;;;13.27;4.95;;;26.10;99.90;;;;;;5091181;28;20043;-62
2022/06/18 08:48:14;;;;;;;9.70;4.65;;;26.10;99.90;;;;;;5109342;28;20031;-62
2022/06/18 08:51:01;;;;;;;9.63;4.40;;;26.30;99.90;;;;;;5111099;28;20043;-62
2022/06/18 08:53:48;;;;;;;8.73;4.90;;;26.40;99.90;;;;;;5104295;28;20059;-62
2022/06/18 08:56:45;;;;;;;6.93;4.40;;;26.10;99.90;;;;;;5091025;28;20039;-62
2022/06/18 08:59:15;;;;;;;8.73;4.50;;;26.20;99.90;;;;;;5109776;28;20060;-62
2022/06/18 09:01:49;;;;;;;9.05;4.55;;;26.10;99.90;;;;;;5109505;28;20253;-61
2022/06/18 09:04:34;;;;;;;9.25;4.18;;;26.10;99.90;;;;;;5109677;28;20122;-62
2022/06/18 09:07:17;;;;;;;7.53;3.67;;;26.10;99.90;;;;;;5110520;28;20326;-62
2022/06/18 09:09:55;;;;;;;11.15;4.10;;;26.10;99.90;;;;;;5108295;28;20035;-62
2022/06/18 09:12:29;;;;;;;10.25;4.32;;;26.20;99.90;;;;;;5106095;28;20047;-62
2022/06/18 09:15:17;;;;;;;7.57;3.70;;;26.20;99.90;;;;;;5107105;28;20082;-62
2022/06/18 09:18:19;;;;;;;10.00;3.75;;;26.20;99.90;;;;;;5109774;28;20058;-62
2022/06/18 09:20:58;;;;;;;8.75;3.88;;;26.50;99.90;;;;;;5098011;28;20063;-63
2022/06/18 09:23:31;;;;;;;9.15;4.03;;;26.30;99.90;;;;;;5107152;28;20105;-62
2022/06/18 09:25:59;;;;;;;9.38;3.88;;;26.20;99.90;;;;;;5109753;28;20127;-64
2022/06/18 09:28:39;;;;;;;8.07;3.67;;;26.20;99.90;;;;;;5111189;28;20042;-62
2022/06/18 09:31:27;;;;;;;7.82;3.70;;;26.10;99.90;;;;;;5109818;28;20089;-61
2022/06/18 09:33:59;;;;;;;7.65;3.60;;;26.40;99.90;;;;;;5103742;28;20066;-61
2022/06/18 09:36:33;;;;;;;6.40;3.20;;;26.40;99.90;;;;;;5106651;28;20084;-61
2022/06/18 09:38:59;;;;;;;8.88;4.00;;;26.50;99.90;;;;;;5091549;28;20464;-61
2022/06/18 09:41:43;;;;;;;9.85;4.20;;;26.50;99.90;;;;;;5107930;28;20039;-61
2022/06/18 09:44:21;;;;;;;6.78;3.45;;;26.50;99.90;;;;;;5108013;28;20043;-62
2022/06/18 09:46:54;;;;;;;10.10;4.30;;;26.50;99.90;;;;;;5105636;28;20035;-61
2022/06/18 09:49:20;;;;;;;6.55;3.58;;;26.70;99.90;;;;;;5111554;28;20039;-61
2022/06/18 09:52:02;;;;;;;8.75;3.50;;;26.50;99.90;;;;;;5089749;28;20046;-62
2022/06/18 09:54:32;;;;;;;7.35;3.15;;;26.60;99.90;;;;;;5100232;28;20135;-61
2022/06/18 09:57:00;;;;;;;7.50;4.03;;;26.60;99.90;;;;;;5106004;28;20475;-61
2022/06/18 09:59:31;;;;;;;7.50;3.05;;;26.70;99.90;;;;;;5092293;28;20084;-62
2022/06/18 10:01:57;;;;;;;7.28;3.35;;;26.70;99.90;;;;;;5104562;28;20035;-61
2022/06/18 10:07:26;;;;;;;6.80;3.53;;;26.70;99.90;;;;;;5108272;28;20176;-63
2022/06/18 10:09:58;;;;;;;8.00;3.67;;;26.80;99.90;;;;;;5104238;28;20035;-61
2022/06/18 10:12:30;;;;;;;6.95;3.72;;;27.10;99.90;;;;;;5104902;28;20035;-62
2022/06/18 10:14:58;;;;;;;5.82;3.25;;;27.20;99.90;;;;;;5106899;28;20042;-62
2022/06/18 10:17:47;;;;;;;6.97;3.70;;;27.00;99.90;;;;;;5109198;28;20071;-64
2022/06/18 10:20:31;;;;;;;10.73;3.65;;;26.90;99.90;;;;;;5102350;28;20520;-63
2022/06/18 10:23:09;;;;;;;;;;;26.80;99.90;;;;;;5104162;28;20036;-64
2022/06/18 10:26:33;;;;;;;7.28;3.67;;;26.80;99.90;;;;;;5108375;28;20037;-64
2022/06/18 10:29:14;;;;;;;7.97;3.70;;;26.60;99.90;;;;;;5106511;28;20043;-64
2022/06/18 10:32:02;;;;;;;7.10;3.40;;;26.70;99.90;;;;;;5107625;28;20043;-62
2022/06/18 10:34:31;;;;;;;7.97;3.35;;;26.70;99.90;;;;;;5105620;28;20504;-62
2022/06/18 10:37:11;;;;;;;7.35;2.83;;;26.80;99.90;;;;;;5108156;28;20078;-62
2022/06/18 10:40:18;;;;;;;5.53;3.10;;;27.10;99.90;;;;;;5102709;28;20040;-63
2022/06/18 10:42:49;;;;;;;4.28;2.80;;;27.00;99.90;;;;;;5101137;28;20035;-64
2022/06/18 10:45:32;;;;;;;10.57;3.95;;;26.90;99.90;;;;;;5108368;28;20032;-62
2022/06/18 10:47:58;;;;;;;;;;;26.90;99.90;;;;;;5109071;28;20558;-62
2022/06/18 10:50:24;;;;;;;5.20;2.63;;;27.00;99.90;;;;;;5108111;28;20245;-63
2022/06/18 10:52:58;;;;;;;5.97;2.83;;;27.20;99.90;;;;;;5106676;28;20076;-62
2022/06/18 10:55:24;;;;;;;8.15;2.90;;;27.30;99.90;;;;;;5109037;28;20046;-62
2022/06/18 10:57:50;;;;;;;6.10;2.83;;;27.40;99.90;;;;;;5107656;28;20119;-61
2022/06/18 11:00:25;;;;;;;5.50;3.08;;;27.30;99.90;;;;;;5105904;28;20040;-62
2022/06/18 11:02:57;;;;;;;5.95;2.63;;;27.30;99.90;;;;;;5086814;28;20081;-62
2022/06/18 11:05:27;;;;;;;6.95;2.80;;;27.50;99.90;;;;;;5107311;28;20032;-62
2022/06/18 11:07:54;;;;;;;7.07;2.70;;;27.40;99.90;;;;;;5108674;28;20220;-62
2022/06/18 11:10:38;;;;;;;8.10;3.33;;;27.50;99.90;;;;;;5106180;28;20048;-62
2022/06/18 11:13:16;;;;;;;5.45;2.95;;;27.40;99.90;;;;;;5088013;28;20048;-62
2022/06/18 11:15:42;;;;;;;6.00;2.53;;;27.50;99.90;;;;;;5109708;28;20061;-63
2022/06/18 11:18:22;;;;;;;5.25;2.72;;;27.60;99.90;;;;;;5105467;28;20044;-63
2022/06/18 11:21:04;;;;;;;8.27;3.00;;;27.60;99.90;;;;;;5101682;28;20067;-63
2022/06/18 11:23:34;;;;;;;7.80;2.90;;;27.40;99.90;;;;;;5086027;28;20058;-64
2022/06/18 11:26:00;;;;;;;6.20;2.88;;;27.40;99.90;;;;;;5105859;28;20032;-64
2022/06/18 11:28:39;;;;;;;6.05;2.58;;;27.40;99.90;;;;;;5104433;28;20071;-63
2022/06/18 11:31:09;;;;;;;8.57;2.90;;;27.40;99.90;;;;;;5107395;28;20042;-64
2022/06/18 11:33:51;;;;;;;5.13;2.40;;;27.30;99.90;;;;;;5106076;28;20125;-64
2022/06/18 11:36:19;;;;;;;6.22;2.40;;;27.30;99.90;;;;;;5103543;28;20043;-64
2022/06/18 11:38:56;;;;;;;4.05;1.90;;;27.30;99.90;;;;;;5105898;28;20051;-64
2022/06/18 11:41:28;;;;;;;5.03;2.30;;;27.30;99.90;;;;;;5105898;28;20039;-65
2022/06/18 11:44:04;;;;;;;5.82;2.10;;;27.30;99.90;;;;;;5105776;28;20124;-64
2022/06/18 11:47:07;;;;;;;5.30;2.15;;;27.50;99.90;;;;;;5105267;28;20050;-63
2022/06/18 11:49:48;;;;;;;5.40;2.53;;;27.60;99.90;;;;;;5105987;28;20043;-64
2022/06/18 11:52:29;;;;;;;5.25;2.25;;;27.80;99.90;;;;;;5101054;28;20044;-63
2022/06/18 11:55:15;;;;;;;4.90;1.98;;;27.90;99.90;;;;;;5102717;28;20043;-64
2022/06/18 11:58:13;;;;;;;3.88;2.13;;;28.20;99.90;;;;;;5104495;28;20094;-63
2022/06/18 12:01:20;;;;;;;3.38;1.58;;;28.00;99.90;;;;;;5108341;28;20039;-66
2022/06/18 12:04:05;;;;;;;7.03;2.20;;;28.10;99.90;;;;;;5099562;28;20198;-63
2022/06/18 12:06:39;;;;;;;7.07;2.00;;;28.10;99.90;;;;;;5100748;28;20070;-64
2022/06/18 12:09:06;;;;;;;4.07;2.35;;;28.30;99.90;;;;;;5105289;28;20043;-64
2022/06/18 12:11:52;;;;;;;4.13;2.10;;;28.30;99.90;;;;;;5105872;28;20072;-63
2022/06/18 12:14:36;;;;;;;4.07;2.00;;;28.30;99.90;;;;;;5104603;28;20050;-63
2022/06/18 12:17:12;;;;;;;4.97;2.17;;;28.30;99.90;;;;;;5105746;28;20032;-64
2022/06/18 12:20:07;;;;;;;6.28;2.42;;;28.30;99.90;;;;;;5103218;28;20039;-64
2022/06/18 12:23:21;;;;;;;5.18;1.92;;;28.20;99.90;;;;;;5100645;28;20040;-64
2022/06/18 12:25:56;;;;;;;8.18;2.38;;;28.10;99.90;;;;;;5021915;28;20112;-63
2022/06/18 12:28:44;;;;;;;5.00;2.00;;;28.10;99.90;;;;;;5101959;28;20077;-64
2022/06/18 12:31:18;;;;;;;5.85;2.22;;;28.30;99.90;;;;;;5105277;28;20081;-64
2022/06/18 12:34:14;;;;;;;7.15;2.20;;;28.20;99.90;;;;;;5105097;28;20231;-63
2022/06/18 12:37:03;;;;;;;6.13;2.17;;;28.20;99.90;;;;;;5105315;28;20051;-64
2022/06/18 12:39:42;;;;;;;4.75;2.05;;;28.20;99.90;;;;;;5100570;28;20028;-64
2022/06/18 12:42:30;;;;;;;7.45;2.25;;;28.20;99.90;;;;;;5103238;28;20090;-64
2022/06/18 12:45:17;;;;;;;6.55;2.40;;;28.00;99.90;;;;;;5105071;28;20059;-64
2022/06/18 12:47:57;;;;;;;5.00;2.10;;;28.20;99.90;;;;;;5104949;28;20051;-64
2022/06/18 12:50:31;;;;;;;8.23;2.10;;;28.30;99.90;;;;;;5103507;28;20032;-65
2022/06/18 12:53:22;;;;;;;6.90;2.28;;;28.40;99.90;;;;;;5103790;28;20509;-64
2022/06/18 12:56:16;;;;;;;9.55;2.55;;;28.50;99.90;;;;;;5099816;28;20073;-65
2022/06/18 12:58:53;;;;;;;8.35;2.28;;;28.40;99.90;;;;;;5103919;28;20511;-64
2022/06/18 13:01:38;;;;;;;6.95;2.53;;;28.30;99.90;;;;;;5105809;28;20119;-65
2022/06/18 13:04:23;;;;;;;4.63;1.73;;;28.30;99.90;;;;;;5104093;28;20031;-64
2022/06/18 13:07:03;;;;;;;5.00;2.50;;;28.20;99.90;;;;;;5098425;28;20072;-64
2022/06/18 13:09:56;;;;;;;6.03;1.92;;;28.30;99.90;;;;;;5099412;28;20040;-64
2022/06/18 13:12:41;;;;;;;4.50;1.90;;;28.00;99.90;;;;;;5103465;28;20610;-64
2022/06/18 13:15:27;;;;;;;3.78;1.95;;;28.00;99.90;;;;;;5102237;28;20494;-64
2022/06/18 13:18:13;;;;;;;4.43;1.63;;;28.10;99.90;;;;;;5104164;28;20042;-64
2022/06/18 13:20:40;;;;;;;6.82;1.90;;;28.20;99.90;;;;;;5102681;28;20118;-64
2022/06/18 13:28:46;;;;;;;3.92;1.73;;;28.50;99.90;;;;;;5103418;28;20358;-64